Time;durP1;ratioP1;P1;durP2;ratioP2;P2;SDS_P1;SDS_P2;PMS_P1;PMS_P2;Temp;Humidity;BMP_temperature;BMP_pressure;BME280_temperature;BME280_humidity;BME280_pressure;Samples;Min_cycle;Max_cycle;Signal;HPM_P1;HPM_P2
2021/01/09 00:00:55;;;;;;;23.45;14.00;;;1.50;86.20;;;;;;5048187;28;20065;-54
2021/01/09 00:03:21;;;;;;;23.13;13.73;;;1.50;85.80;;;;;;5020171;28;20032;-57
2021/01/09 00:05:49;;;;;;;25.17;15.02;;;1.70;84.80;;;;;;5023600;28;20029;-55
2021/01/09 00:08:14;;;;;;;24.20;14.10;;;1.50;85.90;;;;;;5041788;28;20121;-56
2021/01/09 00:10:40;;;;;;;23.80;15.18;;;1.40;86.40;;;;;;5046476;28;20453;-55
2021/01/09 00:13:06;;;;;;;24.58;15.23;;;1.20;88.00;;;;;;5033075;28;20629;-54
2021/01/09 00:15:31;;;;;;;22.70;14.50;;;1.10;88.90;;;;;;5034672;28;20041;-57
2021/01/09 00:17:57;;;;;;;24.60;15.18;;;1.30;88.20;;;;;;5043566;28;20034;-57
2021/01/09 00:20:23;;;;;;;25.30;14.65;;;1.20;88.30;;;;;;5026166;28;20060;-55
2021/01/09 00:22:49;;;;;;;21.88;14.50;;;1.10;88.60;;;;;;5052370;28;20123;-52
2021/01/09 00:25:16;;;;;;;26.23;13.68;;;1.20;88.40;;;;;;5036399;28;20064;-58
2021/01/09 00:27:42;;;;;;;22.70;13.77;;;1.30;87.80;;;;;;5038444;28;20053;-58
2021/01/09 00:30:08;;;;;;;27.35;14.27;;;1.40;86.90;;;;;;5043686;28;20033;-59
2021/01/09 00:32:34;;;;;;;24.75;14.63;;;1.40;86.70;;;;;;5049816;28;20025;-57
2021/01/09 00:35:00;;;;;;;24.73;14.77;;;1.20;87.50;;;;;;5038139;28;20057;-55
2021/01/09 00:37:27;;;;;;;23.35;14.77;;;1.10;87.90;;;;;;5049672;28;20038;-56
2021/01/09 00:39:53;;;;;;;24.13;15.13;;;1.20;87.80;;;;;;5042404;28;20061;-57
2021/01/09 00:42:19;;;;;;;25.90;14.95;;;1.30;87.80;;;;;;5032577;28;20062;-55
2021/01/09 00:44:44;;;;;;;22.08;14.35;;;1.40;87.30;;;;;;5027386;28;20399;-57
2021/01/09 00:47:10;;;;;;;25.98;14.82;;;1.30;86.90;;;;;;5048492;28;20071;-60
2021/01/09 00:49:35;;;;;;;22.60;13.77;;;1.20;87.50;;;;;;5038796;28;20033;-60
2021/01/09 00:52:01;;;;;;;22.38;14.02;;;1.00;88.20;;;;;;5053433;28;20067;-56
2021/01/09 00:54:26;;;;;;;21.77;12.45;;;0.90;88.00;;;;;;5041143;28;20042;-58
2021/01/09 00:56:53;;;;;;;24.05;14.20;;;0.90;88.20;;;;;;5049421;28;20033;-59
2021/01/09 00:59:19;;;;;;;21.58;13.27;;;1.00;88.10;;;;;;5036216;28;20039;-59
2021/01/09 01:01:45;;;;;;;24.67;14.80;;;1.10;87.60;;;;;;5027678;28;20048;-59
2021/01/09 01:04:11;;;;;;;20.67;13.70;;;1.00;87.90;;;;;;5035329;28;20030;-58
2021/01/09 01:06:36;;;;;;;20.08;13.93;;;1.10;87.80;;;;;;5027641;28;20463;-59
2021/01/09 01:09:02;;;;;;;23.70;13.70;;;1.00;88.00;;;;;;5034741;28;20037;-58
2021/01/09 01:11:29;;;;;;;21.48;13.68;;;1.20;87.90;;;;;;5028573;28;20075;-58
2021/01/09 01:13:55;;;;;;;21.67;14.77;;;1.10;88.00;;;;;;5030489;28;20052;-58
2021/01/09 01:16:21;;;;;;;23.52;13.48;;;1.20;87.90;;;;;;5040547;28;20029;-59
2021/01/09 01:18:47;;;;;;;22.70;14.15;;;1.20;88.00;;;;;;5035615;28;20124;-60
2021/01/09 01:21:12;;;;;;;24.95;14.25;;;1.20;87.60;;;;;;5047204;28;20116;-60
2021/01/09 01:23:38;;;;;;;21.98;13.65;;;1.30;87.00;;;;;;5033811;28;20104;-60
2021/01/09 01:26:04;;;;;;;20.02;13.35;;;1.20;87.00;;;;;;5039825;28;20050;-58
2021/01/09 01:28:30;;;;;;;21.45;13.70;;;1.00;88.30;;;;;;5038570;28;20022;-59
2021/01/09 01:30:55;;;;;;;19.27;12.50;;;1.00;88.60;;;;;;5034402;28;20056;-60
2021/01/09 01:33:21;;;;;;;21.58;13.23;;;1.20;87.10;;;;;;5033410;28;20028;-60
2021/01/09 01:35:50;;;;;;;20.70;12.73;;;1.10;87.60;;;;;;5040071;28;20120;-59
2021/01/09 01:38:15;;;;;;;18.40;12.63;;;1.20;87.30;;;;;;5022408;28;20045;-60
2021/01/09 01:40:41;;;;;;;20.88;12.88;;;1.40;85.90;;;;;;5030126;28;20037;-60
2021/01/09 01:43:11;;;;;;;18.13;12.48;;;1.60;85.20;;;;;;5020367;28;20519;-59
2021/01/09 01:45:38;;;;;;;18.92;11.55;;;1.50;84.70;;;;;;5044916;28;20056;-59
2021/01/09 01:48:05;;;;;;;19.50;11.88;;;1.60;84.50;;;;;;5042640;28;20029;-59
2021/01/09 01:50:31;;;;;;;18.73;12.05;;;1.20;85.60;;;;;;5043232;28;20116;-59
2021/01/09 01:52:56;;;;;;;18.42;11.63;;;1.30;86.90;;;;;;5033174;28;20068;-60
2021/01/09 01:55:22;;;;;;;19.88;12.20;;;1.40;86.20;;;;;;5046736;28;20034;-60
2021/01/09 01:57:47;;;;;;;23.55;14.18;;;1.40;86.90;;;;;;5033435;28;20042;-60
2021/01/09 02:00:13;;;;;;;21.88;11.93;;;1.60;90.10;;;;;;5046748;28;20090;-60
2021/01/09 02:02:39;;;;;;;19.33;12.13;;;1.60;87.20;;;;;;5034944;28;20061;-59
2021/01/09 02:05:06;;;;;;;25.08;14.85;;;1.30;88.40;;;;;;5029175;28;20038;-59
2021/01/09 02:07:38;;;;;;;23.05;14.25;;;1.30;88.00;;;;;;5044898;28;20025;-59
2021/01/09 02:10:06;;;;;;;24.15;14.70;;;1.30;88.70;;;;;;5029657;28;20053;-58
2021/01/09 02:12:51;;;;;;;23.25;14.25;;;1.20;89.50;;;;;;5043372;28;20029;-58
2021/01/09 02:15:17;;;;;;;25.23;14.75;;;1.20;90.00;;;;;;5032871;28;20534;-59
2021/01/09 02:17:44;;;;;;;27.05;16.00;;;0.90;90.70;;;;;;5047316;28;20586;-58
2021/01/09 02:20:11;;;;;;;26.42;15.27;;;0.90;91.10;;;;;;5030233;28;20033;-58
2021/01/09 02:22:43;;;;;;;26.48;15.82;;;1.00;90.80;;;;;;5039292;28;20053;-58
2021/01/09 02:25:09;;;;;;;26.75;15.18;;;1.10;90.70;;;;;;5035127;28;20462;-57
2021/01/09 02:27:36;;;;;;;29.52;17.90;;;1.20;90.50;;;;;;5044890;28;20115;-58
2021/01/09 02:30:12;;;;;;;28.50;16.92;;;1.20;90.70;;;;;;5021690;28;20518;-59
2021/01/09 02:32:44;;;;;;;26.92;16.27;;;1.10;90.70;;;;;;5035327;28;20032;-58
2021/01/09 02:35:11;;;;;;;24.88;16.00;;;1.00;91.10;;;;;;5043404;28;20112;-58
2021/01/09 02:37:37;;;;;;;26.92;15.65;;;1.00;91.30;;;;;;5046814;28;20040;-59
2021/01/09 02:40:04;;;;;;;27.58;16.83;;;0.90;91.20;;;;;;5027091;28;20041;-59
2021/01/09 02:42:31;;;;;;;28.00;17.30;;;0.80;91.60;;;;;;5035153;28;20033;-59
2021/01/09 02:44:57;;;;;;;28.58;16.80;;;0.90;91.70;;;;;;5018850;28;20104;-59
2021/01/09 02:47:23;;;;;;;28.42;16.40;;;0.80;91.90;;;;;;5034948;28;20036;-58
2021/01/09 02:49:48;;;;;;;28.50;16.73;;;0.90;91.50;;;;;;5033349;28;20042;-57
2021/01/09 02:52:14;;;;;;;28.17;17.25;;;0.80;91.80;;;;;;5038970;28;20033;-58
2021/01/09 02:54:39;;;;;;;30.65;17.45;;;0.80;91.70;;;;;;5045797;28;20033;-59
2021/01/09 02:57:05;;;;;;;29.95;17.13;;;0.80;92.00;;;;;;5032178;28;20064;-59
2021/01/09 02:59:30;;;;;;;25.20;16.08;;;0.90;91.80;;;;;;5033260;28;20033;-59
2021/01/09 03:01:56;;;;;;;28.38;16.73;;;0.90;91.70;;;;;;5037476;28;20052;-59
2021/01/09 03:04:22;;;;;;;24.70;15.48;;;0.90;91.70;;;;;;5027232;28;20037;-58
2021/01/09 03:06:47;;;;;;;27.25;16.75;;;0.90;91.70;;;;;;5037077;28;20124;-57
2021/01/09 03:09:13;;;;;;;31.33;17.75;;;0.90;91.70;;;;;;5013676;28;20069;-57
2021/01/09 03:11:39;;;;;;;28.42;17.17;;;0.60;92.40;;;;;;5028731;28;20044;-60
2021/01/09 03:14:05;;;;;;;31.65;17.70;;;0.60;92.60;;;;;;5031959;28;20033;-58
2021/01/09 03:16:30;;;;;;;26.42;15.32;;;0.70;92.40;;;;;;5033139;28;20037;-58
2021/01/09 03:18:56;;;;;;;31.98;17.17;;;0.90;92.10;;;;;;5015545;28;20094;-58
2021/01/09 03:21:22;;;;;;;27.98;15.88;;;0.80;92.40;;;;;;5015704;28;20033;-59
2021/01/09 03:23:47;;;;;;;26.63;16.10;;;0.70;92.40;;;;;;5032952;28;20053;-58
2021/01/09 03:26:13;;;;;;;28.77;16.00;;;0.90;92.20;;;;;;5027328;28;20033;-59
2021/01/09 03:28:38;;;;;;;29.38;17.30;;;1.00;92.00;;;;;;5041000;28;20029;-59
2021/01/09 03:31:04;;;;;;;30.38;16.63;;;0.80;92.30;;;;;;5015415;28;20539;-59
2021/01/09 03:33:30;;;;;;;29.70;16.90;;;0.70;92.70;;;;;;4997873;28;20485;-58
2021/01/09 03:35:56;;;;;;;30.27;18.27;;;0.60;92.60;;;;;;4995901;28;20029;-59
2021/01/09 03:38:21;;;;;;;32.53;17.80;;;0.60;92.80;;;;;;5013885;28;20033;-60
2021/01/09 03:40:47;;;;;;;28.50;16.70;;;0.50;93.00;;;;;;5018517;28;20092;-57
2021/01/09 03:43:12;;;;;;;29.75;17.25;;;0.60;93.00;;;;;;5034249;28;20481;-57
2021/01/09 03:45:38;;;;;;;27.15;16.83;;;0.70;92.80;;;;;;5025439;28;20076;-53
2021/01/09 03:48:04;;;;;;;28.27;15.73;;;0.90;92.30;;;;;;5040548;28;20029;-55
2021/01/09 03:50:30;;;;;;;25.98;15.93;;;0.80;92.30;;;;;;5045801;28;20033;-55
2021/01/09 03:52:55;;;;;;;28.45;15.88;;;0.90;92.40;;;;;;5036241;28;20124;-56
2021/01/09 03:55:21;;;;;;;27.13;15.52;;;0.80;92.50;;;;;;5048346;28;20167;-54
2021/01/09 03:57:46;;;;;;;27.92;14.57;;;0.70;92.80;;;;;;5032784;28;20112;-55
2021/01/09 04:00:13;;;;;;;25.33;14.70;;;0.70;92.80;;;;;;5033291;28;20033;-55
2021/01/09 04:02:40;;;;;;;25.55;14.60;;;0.90;92.30;;;;;;5032886;28;20118;-56
2021/01/09 04:05:07;;;;;;;30.25;16.60;;;1.00;91.80;;;;;;5015112;28;20033;-53
2021/01/09 04:07:33;;;;;;;24.25;14.13;;;0.90;92.20;;;;;;5032750;28;20061;-53
2021/01/09 04:09:58;;;;;;;29.20;15.95;;;0.90;92.00;;;;;;5032731;28;20472;-53
2021/01/09 04:12:24;;;;;;;25.20;14.55;;;1.00;91.90;;;;;;5032679;28;20396;-52
2021/01/09 04:14:49;;;;;;;25.42;15.65;;;1.10;91.80;;;;;;5027028;28;20029;-56
2021/01/09 04:17:15;;;;;;;27.10;15.40;;;1.00;91.80;;;;;;5020063;28;20065;-58
2021/01/09 04:19:40;;;;;;;28.40;16.13;;;0.90;92.00;;;;;;5014035;28;20397;-55
2021/01/09 04:22:06;;;;;;;29.02;16.13;;;0.80;92.30;;;;;;5025264;28;20108;-56
2021/01/09 04:24:31;;;;;;;28.23;16.08;;;0.70;92.90;;;;;;5023041;28;20204;-56
2021/01/09 04:27:02;;;;;;;28.90;17.52;;;0.80;92.50;;;;;;5031546;28;20050;-54
2021/01/09 04:29:28;;;;;;;29.75;15.65;;;0.80;92.40;;;;;;5031300;28;20661;-56
2021/01/09 04:31:55;;;;;;;31.48;16.38;;;0.70;92.80;;;;;;5023329;28;20038;-54
2021/01/09 04:34:21;;;;;;;29.85;17.17;;;0.70;93.10;;;;;;5016625;28;20039;-56
2021/01/09 04:36:47;;;;;;;32.03;18.48;;;0.80;92.50;;;;;;5032523;28;20077;-56
2021/01/09 04:39:14;;;;;;;29.65;16.75;;;0.80;92.80;;;;;;5032318;28;20057;-57
2021/01/09 04:41:40;;;;;;;30.88;17.20;;;0.80;92.80;;;;;;5014773;28;20030;-55
2021/01/09 04:44:08;;;;;;;29.85;17.60;;;0.80;92.90;;;;;;5032357;28;20030;-53
2021/01/09 04:46:50;;;;;;;30.25;16.35;;;0.70;93.10;;;;;;5031911;28;20648;-55
2021/01/09 04:49:17;;;;;;;28.23;15.93;;;0.70;93.00;;;;;;5032104;28;20048;-52
2021/01/09 04:51:43;;;;;;;27.60;16.38;;;0.90;92.50;;;;;;5032125;28;20036;-55
2021/01/09 04:54:13;;;;;;;27.83;17.08;;;0.90;92.90;;;;;;5031913;28;20091;-54
2021/01/09 04:56:40;;;;;;;32.20;17.48;;;0.70;93.00;;;;;;5031568;28;20034;-55
2021/01/09 04:59:05;;;;;;;34.38;17.77;;;0.70;93.20;;;;;;5032082;28;20041;-54
2021/01/09 05:01:31;;;;;;;31.73;17.90;;;0.70;93.00;;;;;;5032286;28;20454;-54
2021/01/09 05:03:59;;;;;;;26.05;15.85;;;0.60;92.90;;;;;;5031633;28;20473;-58
2021/01/09 05:06:24;;;;;;;26.88;15.82;;;0.60;93.30;;;;;;5031892;28;20033;-54
2021/01/09 05:08:50;;;;;;;30.60;16.73;;;0.80;93.10;;;;;;5031552;28;20037;-57
2021/01/09 05:11:17;;;;;;;28.77;16.25;;;0.90;92.40;;;;;;5032095;28;20036;-57
2021/01/09 05:13:45;;;;;;;31.17;17.13;;;0.80;92.60;;;;;;5031898;28;20033;-57
2021/01/09 05:16:12;;;;;;;28.55;16.17;;;0.70;93.00;;;;;;5019561;28;20030;-54
2021/01/09 05:18:38;;;;;;;28.73;16.60;;;0.70;93.00;;;;;;5026399;28;20387;-59
2021/01/09 05:21:05;;;;;;;28.52;15.95;;;0.80;93.10;;;;;;5031467;28;20037;-57
2021/01/09 05:23:49;;;;;;;28.92;16.35;;;0.90;92.80;;;;;;5031928;28;20036;-53
2021/01/09 05:26:19;;;;;;;25.98;14.95;;;1.10;92.30;;;;;;5032375;28;20056;-57
2021/01/09 05:28:47;;;;;;;27.30;15.98;;;1.10;92.00;;;;;;5014891;28;20046;-57
2021/01/09 05:31:14;;;;;;;24.48;14.98;;;1.00;92.30;;;;;;5014355;28;20404;-56
2021/01/09 05:33:41;;;;;;;26.13;15.98;;;1.00;92.10;;;;;;5020267;28;20030;-59
2021/01/09 05:36:07;;;;;;;23.35;14.88;;;0.90;92.30;;;;;;5016074;28;20026;-55
2021/01/09 05:38:38;;;;;;;27.08;16.20;;;1.20;91.90;;;;;;5032251;28;20030;-56
2021/01/09 05:41:10;;;;;;;24.33;14.57;;;1.20;91.60;;;;;;5026893;28;20049;-57
2021/01/09 05:43:36;;;;;;;26.23;15.13;;;1.10;92.00;;;;;;5031677;28;20025;-59
2021/01/09 05:46:03;;;;;;;23.70;13.85;;;0.90;92.20;;;;;;5031395;28;20116;-54
2021/01/09 05:48:31;;;;;;;20.00;12.90;;;1.00;92.00;;;;;;5031740;28;20049;-58
2021/01/09 05:50:59;;;;;;;19.20;12.02;;;1.10;91.90;;;;;;5031844;28;20056;-55
2021/01/09 05:53:41;;;;;;;21.02;12.95;;;1.10;91.80;;;;;;5031999;28;20507;-58
2021/01/09 05:56:09;;;;;;;18.92;11.77;;;1.00;91.90;;;;;;5031504;28;20030;-52
2021/01/09 05:58:35;;;;;;;16.95;11.10;;;1.10;91.70;;;;;;5014634;28;20176;-55
2021/01/09 06:01:09;;;;;;;18.52;11.30;;;1.10;91.60;;;;;;5031586;28;20042;-56
2021/01/09 06:03:44;;;;;;;19.60;12.02;;;1.00;91.80;;;;;;5032215;28;20527;-55
2021/01/09 06:06:29;;;;;;;19.17;12.32;;;1.10;91.90;;;;;;5028015;28;20038;-57
2021/01/09 06:09:00;;;;;;;19.35;11.48;;;1.00;92.00;;;;;;4995274;28;20080;-57
2021/01/09 06:11:32;;;;;;;22.10;11.93;;;1.00;92.00;;;;;;5032164;28;20068;-56
2021/01/09 06:14:00;;;;;;;17.42;11.25;;;0.90;92.10;;;;;;5036809;28;20488;-54
2021/01/09 06:16:27;;;;;;;17.40;11.27;;;0.90;92.00;;;;;;5035844;28;20037;-52
2021/01/09 06:18:54;;;;;;;19.67;11.65;;;0.80;92.40;;;;;;5038916;28;20072;-56
2021/01/09 06:21:20;;;;;;;17.58;11.65;;;0.80;92.10;;;;;;5047432;28;20033;-55
2021/01/09 06:23:46;;;;;;;18.73;11.73;;;1.00;91.70;;;;;;5032346;28;20517;-54
2021/01/09 06:26:14;;;;;;;15.98;10.43;;;0.80;92.20;;;;;;5035653;28;20040;-54
2021/01/09 06:28:45;;;;;;;17.52;11.75;;;0.90;91.80;;;;;;5039149;28;20040;-56
2021/01/09 06:31:17;;;;;;;21.58;13.07;;;0.90;92.00;;;;;;5036136;28;20033;-55
2021/01/09 06:33:45;;;;;;;18.17;10.45;;;0.70;92.40;;;;;;5035457;28;20026;-57
2021/01/09 06:36:13;;;;;;;16.90;10.38;;;0.70;92.70;;;;;;5035374;28;20037;-56
2021/01/09 06:38:43;;;;;;;16.83;11.35;;;0.70;92.40;;;;;;5034593;28;20136;-56
2021/01/09 06:41:15;;;;;;;21.40;12.85;;;0.80;92.30;;;;;;4982185;28;20120;-53
2021/01/09 06:43:44;;;;;;;16.83;10.95;;;0.80;92.40;;;;;;5030141;28;20033;-53
2021/01/09 06:46:11;;;;;;;17.02;11.23;;;0.80;92.00;;;;;;5034882;28;20083;-58
2021/01/09 06:48:37;;;;;;;18.00;11.18;;;0.60;92.70;;;;;;5017429;28;20029;-54
2021/01/09 06:51:32;;;;;;;18.05;11.73;;;0.60;92.60;;;;;;5034563;28;20029;-53
2021/01/09 06:54:15;;;;;;;17.17;10.43;;;0.80;92.40;;;;;;5034145;28;20052;-56
2021/01/09 06:56:48;;;;;;;19.45;11.95;;;0.90;92.10;;;;;;5034767;28;20037;-55
2021/01/09 06:59:52;;;;;;;21.42;12.88;;;0.80;92.20;;;;;;5034072;28;20462;-57
2021/01/09 07:02:19;;;;;;;20.65;12.18;;;0.80;92.50;;;;;;4953842;28;20050;-58
2021/01/09 07:05:06;;;;;;;20.15;12.27;;;0.80;92.30;;;;;;4953021;28;20050;-56
2021/01/09 07:07:50;;;;;;;21.30;12.10;;;0.70;92.40;;;;;;4989841;28;20062;-56
2021/01/09 07:10:28;;;;;;;18.63;12.10;;;0.80;92.40;;;;;;5024224;28;20021;-56
2021/01/09 07:12:55;;;;;;;18.33;12.18;;;0.90;91.90;;;;;;5032587;28;20091;-57
2021/01/09 07:15:22;;;;;;;18.33;11.70;;;0.90;91.80;;;;;;5032673;28;20112;-56
2021/01/09 07:17:51;;;;;;;19.10;11.45;;;1.00;91.90;;;;;;5033651;28;20108;-57
2021/01/09 07:20:20;;;;;;;23.05;14.30;;;0.80;92.00;;;;;;5033736;28;20029;-55
2021/01/09 07:22:49;;;;;;;22.42;12.77;;;0.60;92.40;;;;;;5033959;28;20076;-60
2021/01/09 07:25:40;;;;;;;18.65;11.77;;;0.60;92.60;;;;;;5015833;28;20034;-58
2021/01/09 07:28:12;;;;;;;20.80;12.73;;;0.80;92.00;;;;;;5033912;28;20092;-57
2021/01/09 07:30:38;;;;;;;20.08;11.98;;;0.70;92.50;;;;;;5033991;28;20476;-57
2021/01/09 07:33:09;;;;;;;19.85;12.60;;;0.70;92.20;;;;;;5034467;28;20045;-58
2021/01/09 07:35:37;;;;;;;21.83;12.82;;;0.90;91.80;;;;;;5033699;28;20050;-57
2021/01/09 07:38:05;;;;;;;17.27;11.10;;;0.70;92.20;;;;;;5033966;28;20034;-60
2021/01/09 07:40:33;;;;;;;20.40;12.40;;;0.80;92.00;;;;;;5033552;28;20080;-58
2021/01/09 07:42:59;;;;;;;19.88;12.13;;;0.90;91.90;;;;;;5033611;28;20033;-59
2021/01/09 07:45:33;;;;;;;20.73;12.73;;;0.90;91.90;;;;;;5033285;28;20057;-58
2021/01/09 07:47:58;;;;;;;23.63;13.82;;;0.90;91.70;;;;;;5033577;28;20362;-59
2021/01/09 07:50:24;;;;;;;21.85;12.75;;;0.90;91.90;;;;;;5033591;28;20167;-59
2021/01/09 07:53:05;;;;;;;21.73;13.07;;;0.90;92.00;;;;;;5028655;28;20400;-60
2021/01/09 07:55:43;;;;;;;24.48;14.52;;;0.80;92.00;;;;;;5032312;28;20042;-59
2021/01/09 07:58:09;;;;;;;22.23;12.73;;;0.70;92.10;;;;;;5025040;28;20038;-60
2021/01/09 08:00:35;;;;;;;21.77;13.07;;;0.80;92.20;;;;;;5009749;28;20042;-60
2021/01/09 08:03:05;;;;;;;20.83;13.15;;;0.90;91.90;;;;;;5022728;28;20396;-60
2021/01/09 08:05:31;;;;;;;19.00;11.73;;;1.10;91.30;;;;;;5028447;28;20073;-57
2021/01/09 08:07:57;;;;;;;24.00;14.07;;;1.10;91.20;;;;;;5032608;28;20065;-57
2021/01/09 08:10:29;;;;;;;19.65;13.05;;;0.80;92.10;;;;;;5033518;28;20060;-56
2021/01/09 08:13:00;;;;;;;20.60;13.23;;;1.10;91.50;;;;;;5033866;28;20039;-55
2021/01/09 08:15:28;;;;;;;22.65;13.40;;;1.20;91.00;;;;;;5013643;28;20480;-60
2021/01/09 08:17:54;;;;;;;20.33;13.48;;;1.10;91.00;;;;;;5032299;28;20080;-54
2021/01/09 08:20:20;;;;;;;21.08;13.57;;;1.10;91.40;;;;;;5026415;28;20033;-55
2021/01/09 08:23:00;;;;;;;21.75;13.13;;;1.20;90.90;;;;;;5025034;28;20044;-56
2021/01/09 08:25:30;;;;;;;20.27;12.77;;;1.10;91.10;;;;;;5032494;28;20034;-56
2021/01/09 08:27:57;;;;;;;22.25;14.00;;;1.10;90.90;;;;;;5034106;28;20041;-57
2021/01/09 08:30:25;;;;;;;22.65;14.32;;;1.10;91.00;;;;;;5026524;28;20030;-53
2021/01/09 08:33:04;;;;;;;23.08;14.02;;;1.10;91.20;;;;;;4990938;28;20580;-56
2021/01/09 08:35:30;;;;;;;22.45;14.20;;;0.90;91.70;;;;;;5017672;28;20389;-54
2021/01/09 08:37:57;;;;;;;23.38;14.10;;;0.90;91.90;;;;;;5036090;28;20112;-53
2021/01/09 08:40:24;;;;;;;26.20;15.88;;;1.00;91.30;;;;;;5015967;28;20553;-56
2021/01/09 08:43:01;;;;;;;23.58;14.35;;;1.00;91.40;;;;;;5034887;28;20037;-59
2021/01/09 08:45:46;;;;;;;25.65;15.13;;;1.10;91.30;;;;;;5037849;28;20097;-60
2021/01/09 08:48:14;;;;;;;24.30;15.50;;;1.20;91.00;;;;;;5040726;28;20036;-55
2021/01/09 08:50:45;;;;;;;24.05;14.98;;;1.10;91.10;;;;;;5044538;28;20125;-57
2021/01/09 08:53:12;;;;;;;23.17;14.35;;;1.00;91.40;;;;;;5044595;28;20032;-56
2021/01/09 08:55:38;;;;;;;25.23;15.02;;;1.20;91.00;;;;;;5045458;28;20033;-56
2021/01/09 08:58:08;;;;;;;24.15;14.95;;;1.20;90.90;;;;;;5041535;28;20032;-57
2021/01/09 09:00:34;;;;;;;25.27;14.43;;;1.30;91.00;;;;;;5041758;28;20033;-59
2021/01/09 09:03:01;;;;;;;24.55;15.25;;;1.10;91.10;;;;;;5034792;28;20040;-57
2021/01/09 09:05:28;;;;;;;24.30;15.18;;;1.00;91.30;;;;;;5020381;28;20124;-58
2021/01/09 09:08:00;;;;;;;24.05;14.77;;;1.10;91.30;;;;;;5033118;28;20095;-57
2021/01/09 09:10:28;;;;;;;24.33;14.73;;;1.20;91.10;;;;;;5033371;28;20116;-58
2021/01/09 09:12:54;;;;;;;24.02;15.00;;;1.10;91.00;;;;;;5033230;28;20059;-55
2021/01/09 09:15:29;;;;;;;25.77;15.35;;;1.10;91.40;;;;;;5032565;28;20564;-61
2021/01/09 09:17:56;;;;;;;26.30;15.52;;;1.10;91.30;;;;;;5032471;28;20385;-58
2021/01/09 09:20:24;;;;;;;23.75;15.10;;;1.00;91.60;;;;;;5033066;28;20034;-60
2021/01/09 09:22:51;;;;;;;26.33;16.23;;;1.20;91.30;;;;;;5028185;28;20041;-58
2021/01/09 09:25:23;;;;;;;28.10;16.50;;;1.20;91.20;;;;;;5032685;28;20056;-58
2021/01/09 09:27:50;;;;;;;27.73;17.00;;;1.30;91.20;;;;;;5015795;28;20042;-59
2021/01/09 09:30:20;;;;;;;28.20;16.95;;;1.00;91.60;;;;;;5021244;28;20025;-59
2021/01/09 09:32:46;;;;;;;29.10;17.67;;;1.10;91.70;;;;;;5021368;28;20073;-60
2021/01/09 09:35:24;;;;;;;28.90;16.77;;;1.10;91.80;;;;;;5032929;28;20653;-56
2021/01/09 09:37:51;;;;;;;28.65;17.80;;;1.10;91.80;;;;;;5032415;28;20037;-59
2021/01/09 09:40:20;;;;;;;28.33;16.50;;;1.10;91.90;;;;;;5014941;28;20099;-59
2021/01/09 09:42:46;;;;;;;31.48;17.65;;;1.30;91.50;;;;;;5032191;28;20042;-60
2021/01/09 09:45:12;;;;;;;26.55;15.18;;;1.10;91.80;;;;;;5032522;28;20033;-54
2021/01/09 09:47:37;;;;;;;29.80;17.30;;;1.30;91.60;;;;;;5039109;28;20114;-56
2021/01/09 09:50:03;;;;;;;30.02;17.65;;;1.10;91.90;;;;;;5038612;28;20033;-54
2021/01/09 09:52:29;;;;;;;29.40;17.13;;;1.10;92.10;;;;;;5038366;28;20033;-59
2021/01/09 09:55:02;;;;;;;26.63;16.58;;;1.10;91.70;;;;;;5038148;28;20094;-56
2021/01/09 09:57:27;;;;;;;29.30;16.73;;;1.30;91.50;;;;;;5038627;28;20030;-58
2021/01/09 10:00:06;;;;;;;30.40;17.52;;;1.40;91.30;;;;;;5038237;28;20043;-59
2021/01/09 10:02:31;;;;;;;28.42;16.23;;;1.40;91.30;;;;;;5038272;28;20128;-59
2021/01/09 10:04:57;;;;;;;29.45;18.40;;;1.50;91.10;;;;;;5038269;28;20057;-60
2021/01/09 10:07:24;;;;;;;31.52;17.95;;;1.40;91.10;;;;;;5038724;28;20021;-60
2021/01/09 10:09:50;;;;;;;30.85;17.58;;;1.20;91.70;;;;;;5037656;28;20067;-59
2021/01/09 10:12:16;;;;;;;31.48;17.25;;;1.30;91.50;;;;;;5038365;28;20112;-60
2021/01/09 10:14:41;;;;;;;30.52;18.17;;;1.50;91.20;;;;;;5037479;28;20607;-61
2021/01/09 10:17:16;;;;;;;31.55;18.15;;;1.50;91.00;;;;;;5018200;28;20052;-56
2021/01/09 10:19:43;;;;;;;33.15;18.92;;;1.40;91.10;;;;;;5028352;28;20046;-57
2021/01/09 10:22:09;;;;;;;32.25;18.73;;;1.50;91.20;;;;;;5038372;28;20041;-58
2021/01/09 10:24:35;;;;;;;35.22;19.17;;;1.50;91.00;;;;;;5037418;28;20461;-56
2021/01/09 10:27:02;;;;;;;30.30;18.17;;;1.40;91.20;;;;;;5020878;28;20041;-59
2021/01/09 10:29:28;;;;;;;32.47;19.13;;;1.50;91.30;;;;;;5019578;28;20022;-59
2021/01/09 10:31:53;;;;;;;37.63;20.17;;;1.20;91.80;;;;;;5018006;28;20056;-59
2021/01/09 10:34:19;;;;;;;35.05;19.30;;;1.20;91.80;;;;;;5023157;28;20120;-59
2021/01/09 10:36:45;;;;;;;31.50;18.30;;;1.40;91.50;;;;;;5039253;28;20037;-59
2021/01/09 10:39:10;;;;;;;36.80;19.70;;;1.50;91.60;;;;;;5036927;28;20434;-60
2021/01/09 10:41:36;;;;;;;32.00;18.85;;;1.40;91.50;;;;;;5038165;28;20034;-57
2021/01/09 10:44:02;;;;;;;36.25;19.23;;;1.40;91.60;;;;;;5037352;28;20025;-60
2021/01/09 10:46:28;;;;;;;36.53;21.38;;;1.30;91.70;;;;;;5038168;28;20052;-58
2021/01/09 10:48:55;;;;;;;37.70;20.15;;;1.20;91.90;;;;;;5037976;28;20030;-60
2021/01/09 10:51:22;;;;;;;36.17;19.83;;;1.20;92.20;;;;;;5038090;28;20030;-60
2021/01/09 10:53:49;;;;;;;34.45;18.30;;;1.20;92.30;;;;;;5037876;28;20483;-58
2021/01/09 10:56:15;;;;;;;37.17;19.70;;;1.20;92.20;;;;;;5037976;28;20504;-60
2021/01/09 10:58:41;;;;;;;31.67;17.88;;;1.30;92.00;;;;;;5034966;28;20116;-59
2021/01/09 11:01:08;;;;;;;35.22;19.08;;;1.40;91.80;;;;;;5034412;28;20041;-59
2021/01/09 11:03:34;;;;;;;35.25;19.23;;;1.50;91.60;;;;;;5035113;28;20454;-59
2021/01/09 11:06:00;;;;;;;34.42;18.90;;;1.50;91.90;;;;;;5033702;28;20061;-58
2021/01/09 11:08:27;;;;;;;36.30;17.23;;;1.50;91.80;;;;;;5032790;28;20117;-58
2021/01/09 11:10:53;;;;;;;37.97;20.52;;;1.60;91.50;;;;;;5032604;28;20047;-59
2021/01/09 11:13:22;;;;;;;37.00;18.83;;;1.40;91.60;;;;;;5033418;28;20021;-59
2021/01/09 11:15:49;;;;;;;35.78;18.92;;;1.40;92.10;;;;;;5023978;28;20053;-62
2021/01/09 11:18:15;;;;;;;38.60;19.13;;;1.50;91.80;;;;;;5013941;28;20053;-60
2021/01/09 11:20:51;;;;;;;36.47;19.85;;;1.50;91.80;;;;;;5024837;28;20033;-59
2021/01/09 11:23:18;;;;;;;35.70;20.27;;;1.50;91.40;;;;;;5034371;28;20048;-60
2021/01/09 11:25:45;;;;;;;35.38;19.05;;;1.50;91.50;;;;;;5033800;28;20396;-61
2021/01/09 11:28:11;;;;;;;36.50;19.25;;;1.60;91.60;;;;;;5034903;28;20037;-60
2021/01/09 11:30:38;;;;;;;34.08;19.58;;;1.70;91.30;;;;;;5016791;28;20037;-58
2021/01/09 11:33:04;;;;;;;36.25;18.70;;;1.70;91.10;;;;;;5035042;28;20036;-59
2021/01/09 11:35:30;;;;;;;33.05;19.23;;;1.70;91.10;;;;;;5033938;28;20042;-59
2021/01/09 11:37:57;;;;;;;36.53;19.13;;;1.60;91.10;;;;;;5034706;28;20041;-58
2021/01/09 11:40:22;;;;;;;40.20;21.55;;;1.50;91.60;;;;;;5016235;28;20125;-60
2021/01/09 11:42:48;;;;;;;36.88;20.33;;;1.40;91.60;;;;;;5035259;28;20126;-59
2021/01/09 11:45:15;;;;;;;36.13;19.70;;;1.40;91.70;;;;;;5035199;28;20484;-57
2021/01/09 11:47:44;;;;;;;35.10;19.85;;;1.40;91.60;;;;;;5040334;28;20511;-59
2021/01/09 11:50:11;;;;;;;37.55;19.80;;;1.50;91.50;;;;;;5034643;28;20033;-57
2021/01/09 11:52:36;;;;;;;34.30;19.75;;;1.50;91.40;;;;;;5048480;28;20037;-58
2021/01/09 11:55:04;;;;;;;36.10;19.30;;;1.60;91.30;;;;;;5033524;28;20038;-58
2021/01/09 11:57:29;;;;;;;39.50;19.60;;;1.50;91.40;;;;;;5040801;28;20044;-62
2021/01/09 11:59:55;;;;;;;36.72;20.52;;;1.60;91.30;;;;;;5044218;28;20037;-59
2021/01/09 12:02:20;;;;;;;34.85;19.27;;;1.50;91.30;;;;;;5046662;28;20049;-56
2021/01/09 12:04:46;;;;;;;37.28;20.05;;;1.40;91.70;;;;;;5049676;28;20036;-54
2021/01/09 12:07:12;;;;;;;37.60;18.95;;;1.50;91.70;;;;;;5038078;28;20029;-56
2021/01/09 12:09:38;;;;;;;38.63;21.00;;;1.60;91.50;;;;;;5042936;28;20388;-55
2021/01/09 12:12:05;;;;;;;34.63;19.58;;;1.50;91.80;;;;;;5039236;28;20049;-56
2021/01/09 12:14:31;;;;;;;37.05;19.58;;;1.60;91.40;;;;;;5033496;28;20539;-58
2021/01/09 12:16:59;;;;;;;35.33;19.92;;;1.40;91.80;;;;;;5031268;28;20038;-59
2021/01/09 12:19:25;;;;;;;41.50;21.95;;;1.70;92.30;;;;;;5023230;28;20125;-58
2021/01/09 12:21:52;;;;;;;30.38;18.17;;;2.20;93.90;;;;;;5022921;28;20033;-58
2021/01/09 12:24:18;;;;;;;32.53;17.83;;;2.50;90.00;;;;;;5026918;28;20037;-56
2021/01/09 12:26:43;;;;;;;34.15;17.65;;;2.00;90.30;;;;;;5003040;28;20037;-55
2021/01/09 12:29:10;;;;;;;32.92;18.85;;;1.70;90.70;;;;;;5019093;28;20061;-59
2021/01/09 12:31:38;;;;;;;36.72;18.70;;;1.70;91.00;;;;;;4996492;28;20030;-54
2021/01/09 12:34:04;;;;;;;31.80;17.60;;;1.60;91.80;;;;;;5024644;28;20033;-56
2021/01/09 12:36:30;;;;;;;34.72;19.17;;;1.60;91.30;;;;;;4994793;28;20075;-53
2021/01/09 12:38:56;;;;;;;34.97;20.10;;;1.50;91.50;;;;;;5004352;28;20128;-58